Time;durP1;ratioP1;P1;durP2;ratioP2;P2;SDS_P1;SDS_P2;PMS_P1;PMS_P2;Temp;Humidity;BMP_temperature;BMP_pressure;BME280_temperature;BME280_humidity;BME280_pressure;Samples;Min_cycle;Max_cycle;Signal;HPM_P1;HPM_P2
2023/10/14 00:01:14;;;;;;;10.97;5.83;;;24.50;60.00;;;;;;4998324;28;20971;-68
2023/10/14 00:03:45;;;;;;;9.10;5.40;;;24.50;60.10;;;;;;4994047;28;20444;-67
2023/10/14 00:06:12;;;;;;;5.93;5.33;;;24.50;60.30;;;;;;4991569;28;20519;-67
2023/10/14 00:08:48;;;;;;;10.80;6.13;;;24.50;60.50;;;;;;4994408;28;20470;-67
2023/10/14 00:11:17;;;;;;;9.47;5.47;;;24.50;61.00;;;;;;4998493;28;20444;-68
2023/10/14 00:13:48;;;;;;;6.73;5.43;;;24.50;61.30;;;;;;4993322;28;20532;-67
2023/10/14 00:16:26;;;;;;;6.80;5.67;;;24.50;61.50;;;;;;4993883;28;20469;-67
2023/10/14 00:18:51;;;;;;;7.80;5.70;;;24.50;61.80;;;;;;4994222;28;20938;-67
2023/10/14 00:21:17;;;;;;;11.00;6.00;;;24.50;61.80;;;;;;4993644;28;20443;-67
2023/10/14 00:23:44;;;;;;;6.70;6.00;;;24.50;62.00;;;;;;4992725;28;20463;-67
2023/10/14 00:26:16;;;;;;;7.53;5.40;;;24.50;62.40;;;;;;4995319;28;20578;-67
2023/10/14 00:28:45;;;;;;;7.53;5.57;;;24.50;62.90;;;;;;4992682;28;20429;-67
2023/10/14 00:31:12;;;;;;;9.23;5.77;;;24.60;63.40;;;;;;4994260;28;20435;-67
2023/10/14 00:33:38;;;;;;;6.93;5.23;;;24.60;63.60;;;;;;4997426;28;21033;-67
2023/10/14 00:36:10;;;;;;;9.33;5.50;;;24.50;64.00;;;;;;4995722;28;21317;-68
2023/10/14 00:38:39;;;;;;;10.13;6.03;;;24.50;64.10;;;;;;4992064;28;20231;-68
2023/10/14 00:41:08;;;;;;;11.77;6.17;;;24.50;64.60;;;;;;4996846;28;20722;-67
2023/10/14 00:43:35;;;;;;;7.10;5.53;;;24.50;65.30;;;;;;4993244;28;20440;-67
2023/10/14 00:46:16;;;;;;;7.67;5.20;;;24.50;65.80;;;;;;4995028;28;20434;-67
2023/10/14 00:48:46;;;;;;;6.37;5.53;;;24.50;66.20;;;;;;4995249;28;20439;-67
2023/10/14 00:51:15;;;;;;;7.80;5.73;;;24.40;66.80;;;;;;4998037;28;20970;-67
2023/10/14 00:54:27;;;;;;;6.37;5.73;;;24.40;67.10;;;;;;4997826;28;20452;-67
2023/10/14 00:56:31;;;;;;;8.63;5.90;;;24.40;67.60;;;;;;4992108;28;20533;-68
2023/10/14 00:59:03;;;;;;;7.60;6.13;;;24.40;68.20;;;;;;4998533;28;20498;-67
2023/10/14 01:01:48;;;;;;;8.30;6.20;;;24.40;68.70;;;;;;4996322;28;20928;-67
2023/10/14 01:04:20;;;;;;;9.03;6.17;;;24.40;69.00;;;;;;4994440;28;20530;-67
2023/10/14 01:09:22;;;;;;;6.67;5.97;;;24.40;69.90;;;;;;5001763;28;20584;-67
2023/10/14 01:11:48;;;;;;;11.00;6.77;;;24.30;70.40;;;;;;4996190;28;20466;-67
2023/10/14 01:14:17;;;;;;;10.57;6.40;;;24.30;70.90;;;;;;4989769;28;21913;-67
2023/10/14 01:16:46;;;;;;;10.60;7.43;;;24.30;71.30;;;;;;4992091;28;20201;-67
2023/10/14 01:19:15;;;;;;;11.23;6.90;;;24.20;72.20;;;;;;4997185;28;20417;-67
2023/10/14 01:21:41;;;;;;;9.30;6.27;;;24.10;73.30;;;;;;4989988;28;21807;-67
2023/10/14 01:24:16;;;;;;;8.23;6.00;;;24.10;73.90;;;;;;4997557;28;20445;-67
2023/10/14 01:26:52;;;;;;;8.43;6.67;;;24.10;74.70;;;;;;4997580;28;20425;-67
2023/10/14 01:29:26;;;;;;;9.27;6.77;;;24.10;75.20;;;;;;4994143;28;20815;-67
2023/10/14 01:35:23;;;;;;;8.57;6.63;;;24.00;76.30;;;;;;5000439;28;21155;-67
2023/10/14 01:37:51;;;;;;;7.77;6.97;;;24.00;77.10;;;;;;4996423;28;20421;-67
2023/10/14 01:42:57;;;;;;;7.00;6.40;;;24.00;78.10;;;;;;4999132;28;20526;-67
2023/10/14 01:45:39;;;;;;;11.73;6.90;;;23.90;79.30;;;;;;4998545;28;20866;-67
2023/10/14 01:50:37;;;;;;;10.77;6.70;;;23.80;80.00;;;;;;5003759;28;20477;-67
2023/10/14 01:53:13;;;;;;;8.70;6.67;;;23.80;80.10;;;;;;5002783;28;20500;-67
2023/10/14 01:55:42;;;;;;;7.70;7.00;;;23.80;80.30;;;;;;4995454;28;20463;-67
2023/10/14 01:58:12;;;;;;;10.93;7.50;;;23.70;80.90;;;;;;4998791;28;20424;-67
2023/10/14 02:00:39;;;;;;;9.27;7.17;;;23.60;81.40;;;;;;5002604;28;20435;-67
2023/10/14 02:03:10;;;;;;;10.90;7.30;;;23.60;81.90;;;;;;5000417;28;20474;-67
2023/10/14 02:05:45;;;;;;;12.37;6.83;;;23.60;82.30;;;;;;4996910;28;20433;-67
2023/10/14 02:08:14;;;;;;;12.97;8.10;;;23.70;82.70;;;;;;4997035;28;20458;-66
2023/10/14 02:10:47;;;;;;;12.10;8.47;;;23.70;83.00;;;;;;4999009;28;20435;-67
2023/10/14 02:13:14;;;;;;;11.90;7.30;;;23.70;83.80;;;;;;4999260;28;20455;-67
2023/10/14 02:15:40;;;;;;;7.40;6.50;;;23.60;84.30;;;;;;4999524;28;20456;-66
2023/10/14 02:18:05;;;;;;;11.77;7.20;;;23.70;84.80;;;;;;5003311;28;20936;-66
2023/10/14 02:20:38;;;;;;;14.07;7.23;;;23.60;85.50;;;;;;5000149;28;20174;-67
2023/10/14 02:23:05;;;;;;;12.90;6.70;;;23.60;86.00;;;;;;5004756;28;20260;-67
2023/10/14 02:25:32;;;;;;;13.57;6.93;;;23.60;86.60;;;;;;4995993;28;20431;-67
2023/10/14 02:27:58;;;;;;;9.27;7.40;;;23.60;87.20;;;;;;5013576;28;20440;-67
2023/10/14 02:30:24;;;;;;;8.33;7.20;;;23.60;87.70;;;;;;5002366;28;20823;-67
2023/10/14 02:32:49;;;;;;;9.27;6.70;;;23.70;88.00;;;;;;4999788;28;20207;-67
2023/10/14 02:35:16;;;;;;;10.23;7.10;;;23.70;88.50;;;;;;4997058;28;20209;-67
2023/10/14 02:37:41;;;;;;;12.17;7.33;;;23.60;88.90;;;;;;4996670;28;20668;-66
2023/10/14 02:40:17;;;;;;;8.53;7.20;;;23.50;89.60;;;;;;4997054;28;20417;-67
2023/10/14 02:42:42;;;;;;;8.87;7.57;;;23.60;89.90;;;;;;5001245;28;20301;-68
2023/10/14 02:45:12;;;;;;;11.27;7.60;;;23.60;90.10;;;;;;4996715;28;20436;-67
2023/10/14 02:47:40;;;;;;;9.00;7.40;;;23.50;90.30;;;;;;5000705;28;20185;-67
2023/10/14 02:50:08;;;;;;;8.90;7.30;;;23.50;90.50;;;;;;4998422;28;20510;-67
2023/10/14 02:52:38;;;;;;;11.57;6.97;;;23.50;90.70;;;;;;4999909;28;20463;-67
2023/10/14 02:55:25;;;;;;;14.50;6.70;;;23.50;90.80;;;;;;4998268;28;20526;-67
2023/10/14 02:57:51;;;;;;;7.77;6.13;;;23.50;91.00;;;;;;4993055;28;20478;-67
2023/10/14 03:00:30;;;;;;;9.03;8.10;;;23.50;91.20;;;;;;5000668;28;20466;-67
2023/10/14 03:03:02;;;;;;;9.97;6.97;;;23.50;91.50;;;;;;4993737;28;20592;-67
2023/10/14 03:05:41;;;;;;;9.83;7.20;;;23.50;91.70;;;;;;4993396;28;20447;-67
2023/10/14 03:08:09;;;;;;;9.03;6.60;;;23.50;91.90;;;;;;4996428;28;20970;-67
2023/10/14 03:10:39;;;;;;;8.40;7.17;;;23.40;92.10;;;;;;5000393;28;20431;-67
2023/10/14 03:13:14;;;;;;;10.73;8.83;;;23.40;92.40;;;;;;4998633;28;20453;-67
2023/10/14 03:15:44;;;;;;;15.80;7.60;;;23.40;92.50;;;;;;4995029;28;20476;-67
2023/10/14 03:18:13;;;;;;;12.83;7.90;;;23.40;92.70;;;;;;5001065;28;20442;-67
2023/10/14 03:20:41;;;;;;;9.07;6.83;;;23.40;92.90;;;;;;4999368;28;20437;-67
2023/10/14 03:23:23;;;;;;;25.33;8.40;;;23.30;93.90;;;;;;4997994;28;20439;-66
2023/10/14 03:26:00;;;;;;;12.53;10.50;;;22.60;99.90;;;;;;4995925;28;20505;-66
2023/10/14 03:28:27;;;;;;;8.77;8.00;;;20.80;99.90;;;;;;5000592;28;20418;-66
2023/10/14 03:30:55;;;;;;;7.67;6.97;;;19.90;99.90;;;;;;4989189;28;20693;-66
2023/10/14 03:33:23;;;;;;;12.30;6.20;;;19.00;99.90;;;;;;4995672;28;20806;-67
2023/10/14 03:36:03;;;;;;;9.17;5.67;;;18.70;99.90;;;;;;4996687;28;20474;-67
2023/10/14 03:41:03;;;;;;;14.17;5.43;;;18.30;99.90;;;;;;4999935;28;20512;-67
2023/10/14 03:46:59;;;;;;;9.53;4.53;;;18.10;99.90;;;;;;4992643;28;20930;-67
2023/10/14 03:49:21;;;;;;;9.13;5.03;;;18.00;99.90;;;;;;4998874;28;20430;-67
2023/10/14 03:51:49;;;;;;;7.27;4.90;;;18.00;99.90;;;;;;5000196;28;20808;-67
2023/10/14 03:54:23;;;;;;;16.80;4.87;;;18.00;99.90;;;;;;5006816;28;20455;-68
2023/10/14 03:56:50;;;;;;;13.20;4.50;;;18.00;99.90;;;;;;5012386;28;20822;-67
2023/10/14 03:59:21;;;;;;;11.33;5.60;;;18.20;99.90;;;;;;4998743;28;20489;-68
2023/10/14 04:01:54;;;;;;;11.00;5.37;;;18.30;99.90;;;;;;4997708;28;20459;-67
2023/10/14 04:04:21;;;;;;;10.50;4.80;;;18.40;99.90;;;;;;4994676;28;20945;-67
2023/10/14 04:09:51;;;;;;;9.10;4.80;;;18.50;99.90;;;;;;4993038;28;20447;-67
2023/10/14 04:15:05;;;;;;;12.10;4.50;;;18.70;99.90;;;;;;5001895;28;20502;-67
2023/10/14 04:17:30;;;;;;;12.10;5.60;;;18.70;99.90;;;;;;4994255;28;21956;-67
2023/10/14 04:22:40;;;;;;;9.93;4.67;;;18.80;99.90;;;;;;4995649;28;20208;-67
2023/10/14 04:27:45;;;;;;;6.60;4.13;;;18.90;99.90;;;;;;4995272;28;20428;-67
2023/10/14 04:30:25;;;;;;;8.13;4.70;;;19.00;99.90;;;;;;4993749;28;20458;-68
2023/10/14 04:35:33;;;;;;;10.20;4.93;;;19.00;99.90;;;;;;4997423;28;20543;-67
2023/10/14 04:38:13;;;;;;;8.80;5.27;;;19.10;99.90;;;;;;4992553;28;20941;-68
2023/10/14 04:40:39;;;;;;;8.07;4.10;;;19.10;99.90;;;;;;4997461;28;20419;-67
2023/10/14 04:46:00;;;;;;;6.00;4.27;;;19.10;99.90;;;;;;4995474;28;20231;-67
2023/10/14 04:48:35;;;;;;;7.63;4.20;;;19.10;99.90;;;;;;4998083;28;21066;-67
2023/10/14 04:51:15;;;;;;;6.07;3.60;;;19.00;99.90;;;;;;4997655;28;20424;-67
2023/10/14 04:53:46;;;;;;;11.33;4.63;;;19.10;99.90;;;;;;4999544;28;20444;-67
2023/10/14 04:56:12;;;;;;;5.90;3.90;;;19.10;99.90;;;;;;4995376;28;20557;-67
2023/10/14 04:58:40;;;;;;;7.43;4.27;;;19.10;99.90;;;;;;4996285;28;20432;-67
2023/10/14 05:01:10;;;;;;;7.10;4.13;;;19.10;99.90;;;;;;4997635;28;20429;-67
2023/10/14 05:03:35;;;;;;;8.87;4.03;;;19.10;99.90;;;;;;4992522;28;20459;-67
2023/10/14 05:08:45;;;;;;;6.50;3.50;;;19.10;99.90;;;;;;5006800;28;20335;-67
2023/10/14 05:11:15;;;;;;;5.60;3.27;;;19.30;99.90;;;;;;5001513;28;20436;-67
2023/10/14 05:13:44;;;;;;;9.43;3.20;;;19.20;99.90;;;;;;4994313;28;20499;-67
2023/10/14 05:16:20;;;;;;;11.33;4.27;;;19.30;99.90;;;;;;5003596;28;21238;-66
2023/10/14 05:19:30;;;;;;;6.57;3.50;;;19.30;99.90;;;;;;5018638;28;20424;-67
2023/10/14 05:21:42;;;;;;;10.40;3.70;;;19.30;99.90;;;;;;5001106;28;21126;-67
2023/10/14 05:24:09;;;;;;;6.50;3.27;;;19.30;99.90;;;;;;5000866;28;20442;-68
2023/10/14 05:26:45;;;;;;;8.87;3.77;;;19.40;99.90;;;;;;4997592;28;20478;-67
2023/10/14 05:29:19;;;;;;;8.07;3.33;;;19.30;99.90;;;;;;5016127;28;21524;-66
2023/10/14 05:31:48;;;;;;;8.13;3.47;;;19.30;99.90;;;;;;4999048;28;20436;-67
2023/10/14 05:34:21;;;;;;;9.00;3.50;;;19.30;99.90;;;;;;4998375;28;20482;-66
2023/10/14 05:36:52;;;;;;;9.60;3.80;;;19.30;99.90;;;;;;4998492;28;20452;-66
2023/10/14 05:39:18;;;;;;;9.27;3.60;;;19.30;99.90;;;;;;4998995;28;20767;-67
2023/10/14 05:41:44;;;;;;;7.27;3.77;;;19.30;99.90;;;;;;4996958;28;20485;-67
2023/10/14 05:44:11;;;;;;;5.33;3.27;;;19.40;99.90;;;;;;4997966;28;20190;-66
2023/10/14 05:46:36;;;;;;;6.83;3.50;;;19.40;99.90;;;;;;5000427;28;20432;-67
2023/10/14 05:49:04;;;;;;;9.60;2.90;;;19.40;99.90;;;;;;4997186;28;20432;-66
2023/10/14 05:51:30;;;;;;;5.70;3.13;;;19.50;99.90;;;;;;5000857;28;20288;-66
2023/10/14 05:53:56;;;;;;;6.63;2.90;;;19.40;99.90;;;;;;4990489;28;20966;-66
2023/10/14 05:56:22;;;;;;;8.13;3.00;;;19.50;99.90;;;;;;5002408;28;20205;-67
2023/10/14 05:58:48;;;;;;;4.33;2.70;;;19.50;99.90;;;;;;5007755;28;20430;-67
2023/10/14 06:01:16;;;;;;;4.93;2.57;;;19.60;99.90;;;;;;5003892;28;20181;-67
2023/10/14 06:03:42;;;;;;;8.30;3.30;;;19.50;99.90;;;;;;5004689;28;20913;-66
2023/10/14 06:06:16;;;;;;;3.50;2.73;;;19.40;99.90;;;;;;5004899;28;20852;-66
2023/10/14 06:08:46;;;;;;;8.70;3.07;;;19.50;99.90;;;;;;5001603;28;21166;-66
2023/10/14 06:11:16;;;;;;;6.27;2.43;;;19.50;99.90;;;;;;5000289;28;20466;-66
2023/10/14 06:13:42;;;;;;;4.23;2.27;;;19.60;99.90;;;;;;5004462;28;20465;-67
2023/10/14 06:16:09;;;;;;;5.90;3.10;;;19.60;99.90;;;;;;5004128;28;20519;-66
2023/10/14 06:18:39;;;;;;;6.17;2.70;;;19.60;99.90;;;;;;4999297;28;20181;-67
2023/10/14 06:21:10;;;;;;;4.77;2.43;;;19.60;99.90;;;;;;4992063;28;20511;-67
2023/10/14 06:23:54;;;;;;;5.93;2.50;;;19.70;99.90;;;;;;5001714;28;20521;-67
2023/10/14 06:26:20;;;;;;;3.27;2.33;;;19.70;99.90;;;;;;5002500;28;20420;-66
2023/10/14 06:28:48;;;;;;;4.03;2.33;;;19.70;99.90;;;;;;5006160;28;20455;-66
2023/10/14 06:31:14;;;;;;;4.20;2.37;;;19.80;99.90;;;;;;4995450;28;20224;-66
2023/10/14 06:33:43;;;;;;;7.50;2.00;;;19.80;99.90;;;;;;5001427;28;20988;-66
2023/10/14 06:36:14;;;;;;;6.73;2.70;;;19.80;99.90;;;;;;5003349;28;20334;-66
2023/10/14 06:38:44;;;;;;;7.50;2.57;;;19.80;99.90;;;;;;5000078;28;20805;-66
2023/10/14 06:41:11;;;;;;;4.63;1.80;;;19.80;99.90;;;;;;5001066;28;20420;-66
2023/10/14 06:43:38;;;;;;;6.47;2.27;;;19.80;99.90;;;;;;5000590;28;20942;-67
2023/10/14 06:46:05;;;;;;;8.40;2.50;;;19.80;99.90;;;;;;5006010;28;20910;-67
2023/10/14 06:48:32;;;;;;;12.30;2.10;;;19.80;99.90;;;;;;5005678;28;20960;-67
2023/10/14 06:50:59;;;;;;;6.13;2.00;;;19.80;99.90;;;;;;5005418;28;20428;-67
2023/10/14 06:53:28;;;;;;;3.30;1.70;;;19.70;99.90;;;;;;5005249;28;20440;-66
2023/10/14 06:55:54;;;;;;;5.03;2.27;;;19.60;99.90;;;;;;5005403;28;20455;-66
2023/10/14 06:58:21;;;;;;;2.80;1.70;;;19.70;99.90;;;;;;4993438;28;20458;-67
2023/10/14 07:00:48;;;;;;;4.23;1.90;;;19.70;99.90;;;;;;4999995;28;20917;-67
2023/10/14 07:03:14;;;;;;;3.17;1.80;;;19.70;99.90;;;;;;5005411;28;20439;-67
2023/10/14 07:05:46;;;;;;;5.20;2.00;;;19.70;99.90;;;;;;5002419;28;20458;-67
2023/10/14 07:08:12;;;;;;;3.60;1.83;;;19.70;99.90;;;;;;4999872;28;20502;-67
2023/10/14 07:10:39;;;;;;;3.63;2.20;;;19.80;99.90;;;;;;5000463;28;20467;-65
2023/10/14 07:13:05;;;;;;;5.33;2.10;;;19.90;99.90;;;;;;4987910;28;20469;-67
2023/10/14 07:15:35;;;;;;;5.07;2.00;;;19.90;99.90;;;;;;4996568;28;20530;-67
2023/10/14 07:18:01;;;;;;;5.10;1.90;;;19.90;99.90;;;;;;4999518;28;20192;-67
2023/10/14 07:20:30;;;;;;;4.00;2.10;;;19.90;99.90;;;;;;5001206;28;20423;-66
2023/10/14 07:22:58;;;;;;;3.97;1.90;;;19.90;99.90;;;;;;4997099;28;20205;-66
2023/10/14 07:25:24;;;;;;;3.20;1.90;;;19.80;99.90;;;;;;4996327;28;20702;-67
2023/10/14 07:27:51;;;;;;;4.80;2.63;;;19.70;99.90;;;;;;4995504;28;20434;-67
2023/10/14 07:30:18;;;;;;;3.27;1.50;;;19.80;99.90;;;;;;4993148;28;21219;-67
2023/10/14 07:32:45;;;;;;;4.90;1.77;;;19.70;99.90;;;;;;4996067;28;20488;-67
2023/10/14 07:35:17;;;;;;;4.00;1.67;;;19.60;99.90;;;;;;4997028;28;20470;-66
2023/10/14 07:37:49;;;;;;;6.80;2.10;;;19.70;99.90;;;;;;4990546;28;20420;-66
2023/10/14 07:40:30;;;;;;;3.43;1.90;;;19.70;99.90;;;;;;4993029;28;20436;-66
2023/10/14 07:43:05;;;;;;;3.37;1.80;;;19.40;99.90;;;;;;4992483;28;20498;-67
2023/10/14 07:45:33;;;;;;;4.07;1.80;;;19.20;99.90;;;;;;4993814;28;20422;-67
2023/10/14 07:48:00;;;;;;;2.97;1.50;;;18.80;99.90;;;;;;4997385;28;20518;-67
2023/10/14 07:50:31;;;;;;;3.30;1.40;;;18.20;99.90;;;;;;4990948;28;20467;-67
2023/10/14 07:53:07;;;;;;;2.50;1.33;;;18.20;99.90;;;;;;4999006;28;20460;-67
2023/10/14 07:55:42;;;;;;;6.53;1.40;;;18.10;99.90;;;;;;5000036;28;20545;-67
2023/10/14 07:58:11;;;;;;;3.10;1.20;;;18.00;99.90;;;;;;4992222;28;20464;-68
2023/10/14 08:00:48;;;;;;;4.40;2.20;;;17.90;99.90;;;;;;4989207;28;20468;-68
2023/10/14 08:03:18;;;;;;;3.60;1.50;;;17.80;99.90;;;;;;4993416;28;20451;-68
2023/10/14 08:05:48;;;;;;;3.73;1.53;;;17.80;99.90;;;;;;4997651;28;20541;-67
2023/10/14 08:08:14;;;;;;;3.20;1.50;;;17.90;99.90;;;;;;4997904;28;20927;-67
2023/10/14 08:10:42;;;;;;;2.83;1.40;;;17.90;99.90;;;;;;4993991;28;20439;-67
2023/10/14 08:13:11;;;;;;;4.90;1.90;;;18.00;99.90;;;;;;4989129;28;20222;-68
2023/10/14 08:15:37;;;;;;;6.27;1.87;;;17.90;99.90;;;;;;4992942;28;20855;-68
2023/10/14 08:18:06;;;;;;;4.30;2.20;;;18.00;99.90;;;;;;4996779;28;20946;-68
2023/10/14 08:20:35;;;;;;;3.93;2.00;;;18.00;99.90;;;;;;4990364;28;20189;-67
2023/10/14 08:23:09;;;;;;;3.50;2.10;;;18.10;99.90;;;;;;4994287;28;20468;-67
2023/10/14 08:25:35;;;;;;;3.60;1.90;;;18.20;99.90;;;;;;4993619;28;20470;-67
2023/10/14 08:28:04;;;;;;;9.87;2.00;;;18.20;99.90;;;;;;4991759;28;20421;-68
2023/10/14 08:30:34;;;;;;;5.07;1.67;;;18.30;99.90;;;;;;4991646;28;20478;-67
2023/10/14 08:33:03;;;;;;;3.73;1.60;;;18.40;99.90;;;;;;4976323;28;20448;-68
2023/10/14 08:35:29;;;;;;;4.73;1.67;;;18.50;99.90;;;;;;4991318;28;20476;-67
2023/10/14 08:37:57;;;;;;;3.07;2.10;;;18.50;99.90;;;;;;4992571;28;20493;-67
2023/10/14 08:40:26;;;;;;;4.00;1.77;;;18.60;99.90;;;;;;4988903;28;20437;-67
2023/10/14 08:43:05;;;;;;;2.80;1.67;;;18.60;99.90;;;;;;4985619;28;20888;-67
2023/10/14 08:45:36;;;;;;;3.57;2.07;;;18.70;99.90;;;;;;4985640;28;20476;-67
2023/10/14 08:48:03;;;;;;;4.07;1.90;;;18.80;99.90;;;;;;4990554;28;20448;-69
2023/10/14 08:50:34;;;;;;;7.30;2.07;;;18.80;99.90;;;;;;4992633;28;20463;-67
2023/10/14 08:53:06;;;;;;;2.40;1.50;;;18.70;99.90;;;;;;4981771;28;20670;-66
2023/10/14 08:55:34;;;;;;;3.57;1.40;;;18.70;99.90;;;;;;4989775;28;20554;-65
2023/10/14 08:58:04;;;;;;;3.97;1.73;;;18.70;99.90;;;;;;4990264;28;20428;-66
2023/10/14 09:00:37;;;;;;;2.33;1.50;;;18.80;99.90;;;;;;4986100;28;20908;-66
2023/10/14 09:03:06;;;;;;;2.90;1.43;;;18.80;99.90;;;;;;4988103;28;20498;-66
2023/10/14 09:05:44;;;;;;;3.57;1.67;;;18.90;99.90;;;;;;4986310;28;20446;-66
2023/10/14 09:08:18;;;;;;;2.20;1.30;;;18.80;99.90;;;;;;4992767;28;20546;-66
2023/10/14 09:10:44;;;;;;;3.13;1.77;;;18.70;99.90;;;;;;4999055;28;21126;-66
2023/10/14 09:13:11;;;;;;;2.87;1.60;;;18.80;99.90;;;;;;4990301;28;20544;-66
2023/10/14 09:15:39;;;;;;;2.83;1.40;;;18.80;99.90;;;;;;4993095;28;20496;-66
2023/10/14 09:18:27;;;;;;;6.10;1.80;;;18.70;99.90;;;;;;4990477;28;20502;-67
2023/10/14 09:20:56;;;;;;;3.53;1.80;;;18.70;99.90;;;;;;4993617;28;20914;-67
2023/10/14 09:23:27;;;;;;;3.90;1.53;;;18.80;99.90;;;;;;4992127;28;20738;-66
2023/10/14 09:25:58;;;;;;;3.67;1.83;;;18.90;99.90;;;;;;4989391;28;20455;-67
2023/10/14 09:28:33;;;;;;;2.27;1.50;;;18.90;99.90;;;;;;4990843;28;20969;-67
2023/10/14 09:30:59;;;;;;;3.47;1.50;;;18.80;99.90;;;;;;4987834;28;20433;-67
2023/10/14 09:33:27;;;;;;;3.80;1.70;;;18.80;99.90;;;;;;4996401;28;20475;-67
2023/10/14 09:35:58;;;;;;;4.03;1.70;;;18.70;99.90;;;;;;4980426;28;20464;-67
2023/10/14 09:38:26;;;;;;;4.10;1.70;;;18.70;99.90;;;;;;4976315;28;20911;-67
2023/10/14 09:40:57;;;;;;;2.70;1.70;;;18.70;99.90;;;;;;4982336;28;20435;-70
2023/10/14 09:43:27;;;;;;;3.00;1.70;;;18.70;99.90;;;;;;4989509;28;20766;-66
2023/10/14 09:45:57;;;;;;;5.43;1.50;;;18.90;99.90;;;;;;4990217;28;20491;-67
2023/10/14 09:48:25;;;;;;;2.40;1.27;;;18.90;99.90;;;;;;4990581;28;21302;-66
2023/10/14 09:50:54;;;;;;;2.80;1.43;;;18.90;99.90;;;;;;4992326;28;20431;-67
2023/10/14 09:53:27;;;;;;;3.30;1.60;;;18.90;99.90;;;;;;4997960;28;20462;-68
2023/10/14 09:55:58;;;;;;;4.43;1.83;;;18.80;99.90;;;;;;4999205;28;20557;-68
2023/10/14 09:58:30;;;;;;;3.10;1.70;;;18.80;99.90;;;;;;4995550;28;20427;-67
2023/10/14 10:01:06;;;;;;;2.67;1.60;;;18.70;99.90;;;;;;4994249;28;20763;-68
2023/10/14 10:03:55;;;;;;;3.53;1.63;;;18.50;99.90;;;;;;4988583;28;20550;-68
2023/10/14 10:06:56;;;;;;;2.47;1.73;;;18.30;99.90;;;;;;4994439;28;20455;-68
2023/10/14 10:10:01;;;;;;;2.43;1.90;;;18.40;99.90;;;;;;4998638;28;20453;-68
2023/10/14 10:12:30;;;;;;;3.07;1.90;;;18.40;99.90;;;;;;4993109;28;20832;-67
2023/10/14 10:15:03;;;;;;;3.73;1.50;;;18.30;99.90;;;;;;4992073;28;20441;-66
2023/10/14 10:17:30;;;;;;;3.90;2.07;;;18.40;99.90;;;;;;4993290;28;20424;-67
2023/10/14 10:20:17;;;;;;;3.10;2.13;;;18.40;99.90;;;;;;4996828;28;21174;-67
2023/10/14 10:22:55;;;;;;;2.83;1.70;;;18.60;99.90;;;;;;4996981;28;20487;-67
2023/10/14 10:25:22;;;;;;;3.53;2.23;;;18.50;99.90;;;;;;5009186;28;20448;-67
2023/10/14 10:27:55;;;;;;;4.10;2.20;;;18.50;99.90;;;;;;5000485;28;20498;-67
2023/10/14 10:30:22;;;;;;;3.33;1.70;;;18.40;99.90;;;;;;4992583;28;20457;-67
2023/10/14 10:32:50;;;;;;;3.57;2.37;;;18.30;99.90;;;;;;4994228;28;20452;-67
2023/10/14 10:35:20;;;;;;;2.20;1.37;;;18.30;99.90;;;;;;4998858;28;20814;-67
2023/10/14 10:37:48;;;;;;;2.73;1.80;;;18.20;99.90;;;;;;4994404;28;20443;-68
2023/10/14 10:40:30;;;;;;;3.27;2.00;;;18.10;99.90;;;;;;4991952;28;20499;-68
2023/10/14 10:43:03;;;;;;;3.30;1.90;;;18.10;99.90;;;;;;4990929;28;20465;-66
2023/10/14 10:45:33;;;;;;;5.47;2.03;;;17.90;99.90;;;;;;4999696;28;20469;-66
2023/10/14 10:48:03;;;;;;;2.20;1.60;;;17.80;99.90;;;;;;4996204;28;20490;-66
2023/10/14 10:50:39;;;;;;;2.97;1.50;;;17.80;99.90;;;;;;4995833;28;20459;-68
2023/10/14 10:53:10;;;;;;;4.10;1.87;;;17.70;99.90;;;;;;4998510;28;20463;-66
2023/10/14 10:55:39;;;;;;;3.20;1.57;;;17.70;99.90;;;;;;4997706;28;20464;-66
2023/10/14 10:58:07;;;;;;;2.27;1.90;;;17.70;99.90;;;;;;5003383;28;20462;-67
2023/10/14 11:00:33;;;;;;;2.43;1.73;;;17.70;99.90;;;;;;4994067;28;20439;-68
2023/10/14 11:03:00;;;;;;;3.50;1.60;;;17.70;99.90;;;;;;5000537;28;20851;-68
2023/10/14 11:05:28;;;;;;;4.50;1.70;;;17.70;99.90;;;;;;4998571;28;20433;-67
2023/10/14 11:07:56;;;;;;;2.90;2.03;;;17.60;99.90;;;;;;4997710;28;20447;-66
2023/10/14 11:10:34;;;;;;;2.83;1.60;;;17.70;99.90;;;;;;4982156;28;20463;-66
2023/10/14 11:13:00;;;;;;;6.43;1.90;;;17.60;99.90;;;;;;4996208;28;21010;-66
2023/10/14 11:15:27;;;;;;;3.43;1.87;;;17.60;99.90;;;;;;4995572;28;21139;-66
2023/10/14 11:17:57;;;;;;;2.17;1.40;;;17.40;99.90;;;;;;4998695;28;20439;-67
2023/10/14 11:20:39;;;;;;;3.30;1.57;;;17.40;99.90;;;;;;4997075;28;20459;-67
2023/10/14 11:23:08;;;;;;;2.60;1.60;;;17.40;99.90;;;;;;5000006;28;20474;-67
2023/10/14 11:25:40;;;;;;;4.40;1.80;;;17.50;99.90;;;;;;4990852;28;20439;-66
2023/10/14 11:28:07;;;;;;;3.17;2.07;;;17.50;99.90;;;;;;4997632;28;20943;-67
2023/10/14 11:30:37;;;;;;;10.03;1.80;;;17.50;99.90;;;;;;5005731;28;20440;-67
2023/10/14 11:33:02;;;;;;;3.70;1.30;;;17.50;99.90;;;;;;4999789;28;20452;-67
2023/10/14 11:35:28;;;;;;;2.30;1.30;;;17.60;99.90;;;;;;4998615;28;20475;-67
2023/10/14 11:38:02;;;;;;;2.30;1.60;;;17.70;99.90;;;;;;4995425;28;20193;-67
2023/10/14 11:40:39;;;;;;;2.20;1.50;;;17.80;99.90;;;;;;4997566;28;20435;-67
2023/10/14 11:43:05;;;;;;;2.10;1.60;;;17.80;99.90;;;;;;4997475;28;21050;-65
2023/10/14 11:45:31;;;;;;;2.23;1.40;;;17.80;99.90;;;;;;5000123;28;20538;-66
2023/10/14 11:48:00;;;;;;;2.60;1.57;;;17.80;99.90;;;;;;4999523;28;20510;-67
2023/10/14 11:50:26;;;;;;;3.40;1.57;;;17.90;99.90;;;;;;4996760;28;20487;-67
2023/10/14 11:52:57;;;;;;;2.53;1.93;;;17.80;99.90;;;;;;4998861;28;20447;-67
2023/10/14 11:55:25;;;;;;;2.40;1.70;;;17.90;99.90;;;;;;4996049;28;20479;-68
2023/10/14 11:57:53;;;;;;;2.23;1.70;;;18.00;99.90;;;;;;4983956;28;20937;-67
2023/10/14 12:00:20;;;;;;;2.47;1.70;;;18.10;99.90;;;;;;4996672;28;20428;-67
2023/10/14 12:02:49;;;;;;;2.70;2.10;;;18.10;99.90;;;;;;4993340;28;20882;-67
2023/10/14 12:05:16;;;;;;;4.60;1.77;;;18.10;99.90;;;;;;4994257;28;20436;-69
2023/10/14 12:07:47;;;;;;;2.43;1.57;;;18.00;99.90;;;;;;4994957;28;20456;-67
2023/10/14 12:10:12;;;;;;;3.70;1.50;;;18.10;99.90;;;;;;4992050;28;20451;-68
2023/10/14 12:12:38;;;;;;;2.23;1.60;;;18.10;99.90;;;;;;4998098;28;20456;-68
2023/10/14 12:15:06;;;;;;;2.60;1.70;;;18.10;99.90;;;;;;4989993;28;20280;-68
2023/10/14 12:17:35;;;;;;;2.40;1.60;;;18.20;99.90;;;;;;4997175;28;20814;-68
2023/10/14 12:20:10;;;;;;;2.53;1.50;;;18.20;99.90;;;;;;4994796;28;20495;-68
2023/10/14 12:22:36;;;;;;;2.07;1.60;;;18.10;99.90;;;;;;4992961;28;20937;-68
2023/10/14 12:25:02;;;;;;;4.13;2.20;;;18.10;99.90;;;;;;4988561;28;20437;-68
2023/10/14 12:27:28;;;;;;;4.30;1.90;;;18.30;99.90;;;;;;4999406;28;20610;-69
2023/10/14 12:29:54;;;;;;;3.30;2.00;;;18.50;99.90;;;;;;5002785;28;20519;-69
2023/10/14 12:32:20;;;;;;;2.47;1.57;;;18.50;99.90;;;;;;4997275;28;20236;-68
2023/10/14 12:34:48;;;;;;;4.40;1.90;;;18.50;99.90;;;;;;4989801;28;21135;-66
2023/10/14 12:37:21;;;;;;;3.27;1.87;;;18.40;99.90;;;;;;4994591;28;20474;-68
2023/10/14 12:39:55;;;;;;;3.50;2.10;;;18.40;99.90;;;;;;4996125;28;20427;-68
2023/10/14 12:42:44;;;;;;;3.50;1.90;;;18.40;99.90;;;;;;4992018;28;20434;-68
2023/10/14 12:45:13;;;;;;;2.83;1.70;;;18.30;99.90;;;;;;4994695;28;21012;-68
2023/10/14 12:47:46;;;;;;;3.10;2.20;;;18.40;99.90;;;;;;4996403;28;20723;-68
2023/10/14 12:50:14;;;;;;;4.00;1.90;;;18.10;99.90;;;;;;4996597;28;20442;-68
2023/10/14 12:52:40;;;;;;;4.43;1.90;;;18.10;99.90;;;;;;4998854;28;20534;-69
2023/10/14 12:55:17;;;;;;;4.00;2.60;;;18.10;99.90;;;;;;4997491;28;20428;-70
2023/10/14 12:57:46;;;;;;;3.03;2.03;;;17.90;99.90;;;;;;4990460;28;20854;-69
2023/10/14 13:00:18;;;;;;;5.83;2.23;;;17.90;99.90;;;;;;4998299;28;20421;-69
2023/10/14 13:02:47;;;;;;;6.60;2.33;;;18.00;99.90;;;;;;4996490;28;20543;-69
2023/10/14 13:05:18;;;;;;;6.47;2.67;;;18.20;99.90;;;;;;4999251;28;20885;-70
2023/10/14 13:07:48;;;;;;;4.40;2.53;;;18.40;99.90;;;;;;4993908;28;20440;-70
2023/10/14 13:10:20;;;;;;;4.57;2.70;;;18.80;99.90;;;;;;4994211;28;20420;-69
2023/10/14 13:12:51;;;;;;;3.60;2.17;;;19.00;99.90;;;;;;4999025;28;20852;-69
2023/10/14 13:15:28;;;;;;;4.00;2.67;;;18.70;99.90;;;;;;4994978;28;20431;-69
2023/10/14 13:18:04;;;;;;;4.50;2.60;;;18.60;99.90;;;;;;5002125;28;20659;-69
2023/10/14 13:20:31;;;;;;;3.80;2.60;;;18.50;99.90;;;;;;4997655;28;20412;-69
2023/10/14 13:23:03;;;;;;;7.40;3.07;;;18.50;99.90;;;;;;4995019;28;20572;-69
2023/10/14 13:25:30;;;;;;;6.03;2.50;;;18.40;99.90;;;;;;4995003;28;20450;-69
2023/10/14 13:27:55;;;;;;;6.97;2.60;;;18.30;99.90;;;;;;4995572;28;20486;-70
2023/10/14 13:30:22;;;;;;;5.77;2.30;;;18.30;99.90;;;;;;5002550;28;20957;-68
2023/10/14 13:32:55;;;;;;;4.70;2.47;;;18.30;99.90;;;;;;4997664;28;20284;-70
2023/10/14 13:35:21;;;;;;;6.90;3.03;;;18.30;99.90;;;;;;5000395;28;21029;-68
2023/10/14 13:37:48;;;;;;;7.77;2.90;;;18.40;99.90;;;;;;5002413;28;20441;-70